SGAS/ASU METAR and TAF weather

Enter ICAO airport designator
Station Type Date Time Source
SGAS METAR 2021/01/22 06:00 UTC NOAA

SGAS 220600Z 07004KT CAVOK 25/24 Q1012


Station Type Date Time Source
SGAS Decoded METAR 2021/01/22 06:00 UTC NOAA

Asuncion / Aeropuerto, Paraguay (SGAS) 25-16S 057-38W 101M
Jan 22, 2021 - 01:00 AM EST / 2021.01.22 0600 UTC
Wind: from the ENE (070 degrees) at 5 MPH (4 KT):0
Visibility: greater than 7 mile(s):0
Temperature: 77 F (25 C)
Dew Point: 75 F (24 C)
Relative Humidity: 94%
Pressure (altimeter): 29.88 in. Hg (1012 hPa)
ob: SGAS 220600Z 07004KT CAVOK 25/24 Q1012
cycle: 6

Station Type Date Time Source
SGAS TAF 2021/01/22 06:48 UTC NOAA

TAF TAF SGAS 220440Z 2206/2306 10005KT CAVOK TX32/2219Z TN23/2209Z
BECMG 2212/2215 07008KT 9999 BKN027
TEMPO 2216/2220 8000 TSRA BKN020 FEW040CB
BECMG 2221/2223 11003KT 9999 SCT030

Example: see airport list